KSUE

Door County Cherryland Airport

Sturgeon Bay, Wisconsin, USA
METAR KSUE 182130Z AUTO VRB03KT 10SM FEW027 23/17 A3003 RMK AO2
Observed Flight Rules
Aug-18 @ 21:30 UTC (24 minutes ago) Visual Flight Rules
Wind Visibility Clouds
Variable at 3 knots 10 miles
  • Few at 2,700' AGL
Temperatures Readings
Current 23°C / 73°F
Dewpoint 17°C / 63°F
Humidity 69%
Altimeter 30.03" Hg
Pressure 1017 hPa
Elevation 221
METAR KSUE 182130Z AUTO VRB03KT 10SM FEW027 23/17 A3003 RMK AO2
Observed Flight Rules
Aug-18 @ 21:30 UTC
(24 minutes ago)
VFR
Wind Visibility
Variable at 3 knots 10 miles
Clouds
  • Few at 2,700' AGL
Temperature Dewpoint
23°C / 73°F 17°C / 63°F
Humidity Altimeter Pressure
69% 30.03" Hg 1017 hPa